Terminal Aerodrome Forecast
Issued by NWS

Home | Current Version | Previous Version | Text Only | Print | Product List | Glossary On
Versions: 1 2 3 4 5 6 7 8 9 10 11 12 13
000
FTUS44 KTSA 250618 AAA
TAFRVS
TAF AMD
KRVS 250618Z 2506/2606 36007KT P6SM BKN120
     FM251000 34010KT 6SM -SHRA OVC040
     FM251200 34008KT 4SM -SHRA BR OVC015
     FM251400 33008KT 2SM -SHRA BR OVC007
     FM260000 32007KT 3SM BR OVC007=

USA.gov is the U.S. government's official web portal to all federal, state and local government web resources and services.